^^

Nearby METAR Reports


EGAC - Belfast Harbour, United Kingdom
Distance from station: W 8mi, 13km
Updated: 14/12/2017 22:20
Light rain, Mostly cloudy
Light rain, Mostly cloudy
 Wind from WNW
Wind: WNW 17 mph , 28 km/h, Gust: 29 mph , 46 km/h
Temperature: 6°C
Wind Chill: 2°C
Dew Point: 5°C
Humidity: 93%
Barometer: 987 hPa
Summary: Light rain
Clouds: Mostly cloudy
Visibility: 6 miles , 9 km
Cloud details: Mostly cloudy 853 m
2017/12/14 22:20 EGAC 142220Z AUTO 29015G25KT 9000 -RA BKN028/// 06/05 Q0987
EGAA - Belfast/Aldergrove, United Kingdom
Distance from station: W 22mi, 35km
Updated: 14/12/2017 22:20
Partly cloudy
Partly cloudy
 Wind from WNW
Wind: WNW 17 mph , 28 km/h
Temperature: 6°C
Wind Chill: 2°C
Dew Point: 4°C
Humidity: 87%
Barometer: 988 hPa
Clouds: Partly cloudy
Visibility: 6 miles , 10 km
Cloud details: Few Clouds 396 m
Partly cloudy 914 m
2017/12/14 22:20 EGAA 142220Z 30015KT 9999 FEW013 SCT030 06/04 Q0988
 
EGNS - Isle Of Man/Rona, United Kingdom
Distance from station: SE 57mi, 91km
Updated: 14/12/2017 21:50
Light rain, Showers, Mostly cloudy
Light rain, Showers, Mostly cloudy
 Wind from WNW
Wind: WNW 22 mph , 35 km/h, Gust: 35 mph , 56 km/h
Temperature: 7°C
Wind Chill: 3°C
Dew Point: 4°C
Humidity: 81%
Barometer: 985 hPa
Summary: Light rain, Showers
Clouds: Mostly cloudy
Visibility: 6 miles , 10 km
Cloud details: Mostly cloudy 518 m
2017/12/14 21:50 EGNS 142150Z 29019G30KT 260V320 9999 -SHRA BKN017CB 07/04 Q0985
EGAE - Eglinton/Londonderry, United Kingdom
Distance from station: WNW 65mi, 105km
Updated: 14/12/2017 21:20
NOT Current
Mostly cloudy
Mostly cloudy
 Wind from NNW
Wind: NNW 24 mph , 39 km/h
Temperature: 7°C
Wind Chill: 2°C
Dew Point: 5°C
Humidity: 87%
Barometer: 989 hPa
Clouds: Mostly cloudy
Visibility: 6 miles , 10 km
Cloud details: Few Clouds 640 m
Mostly cloudy 1006 m
2017/12/14 21:20 EGAE 142120Z 33021KT 9999 FEW021 BKN033 07/05 Q0989
 
EGPK - Prestwick(Civ/Na, United Kingdom
Distance from station: NE 74mi, 119km
Updated: 14/12/2017 22:20
Partly cloudy
Partly cloudy
 Wind from NE
Wind: NE 6 mph , 9 km/h
Temperature: 3°C
Wind Chill: 0°C
Dew Point: 2°C
Humidity: 93%
Barometer: 986 hPa
Clouds: Partly cloudy
Visibility: 6 miles , 10 km
Cloud details: Partly cloudy 640 m
2017/12/14 22:20 EGPK 142220Z 05005KT 030V090 9999 SCT021 03/02 Q0986
EIDW - Dublin Airport, Ireland
Distance from station: SSW 87mi, 141km
Updated: 14/12/2017 22:30
Partly cloudy
Partly cloudy
 Wind from W
Wind: W 24 mph , 39 km/h
Temperature: 3°C
Wind Chill: -3°C
Dew Point: 2°C
Humidity: 93%
Barometer: 991 hPa
Clouds: Partly cloudy
Visibility: 6 miles , 10 km
Cloud details: Few Clouds 305 m
Few Clouds 549 m
Partly cloudy 4572 m
2017/12/14 22:30 EIDW 142230Z 26021KT 9999 FEW010 FEW018CB SCT150 03/02 Q0991 NOSIG